sensor_id;sensor_type;location;lat;lon;timestamp;pressure;altitude;pressure_sealevel;temperature;humidity
60646;BME280;46462;32.608;-117.032;2022-11-11T00:01:00;99643.89;;;19.54;31.36
60646;BME280;46462;32.608;-117.032;2022-11-11T00:03:29;99640.92;;;19.56;31.35
60646;BME280;46462;32.608;-117.032;2022-11-11T00:06:01;99639.35;;;19.61;31.09
60646;BME280;46462;32.608;-117.032;2022-11-11T00:08:29;99639.02;;;19.52;31.17
60646;BME280;46462;32.608;-117.032;2022-11-11T00:11:02;99639.19;;;19.50;31.35
60646;BME280;46462;32.608;-117.032;2022-11-11T00:13:30;99639.45;;;19.42;31.72
60646;BME280;46462;32.608;-117.032;2022-11-11T00:16:04;99638.63;;;19.40;32.09
60646;BME280;46462;32.608;-117.032;2022-11-11T00:18:29;99637.49;;;19.40;32.36
60646;BME280;46462;32.608;-117.032;2022-11-11T00:21:00;99635.74;;;19.36;32.46
60646;BME280;46462;32.608;-117.032;2022-11-11T00:23:30;99636.54;;;19.21;32.61
60646;BME280;46462;32.608;-117.032;2022-11-11T00:26:01;99638.78;;;19.17;32.95
60646;BME280;46462;32.608;-117.032;2022-11-11T00:28:30;99643.86;;;19.08;33.37
60646;BME280;46462;32.608;-117.032;2022-11-11T00:31:03;99625.84;;;19.91;32.39
60646;BME280;46462;32.608;-117.032;2022-11-11T00:33:32;99626.04;;;22.03;28.88
60646;BME280;46462;32.608;-117.032;2022-11-11T00:36:01;99634.73;;;23.30;26.74
60646;BME280;46462;32.608;-117.032;2022-11-11T00:38:31;99631.68;;;23.97;25.68
60646;BME280;46462;32.608;-117.032;2022-11-11T00:41:01;99630.16;;;24.42;25.04
60646;BME280;46462;32.608;-117.032;2022-11-11T00:43:32;99633.52;;;24.83;24.47
60646;BME280;46462;32.608;-117.032;2022-11-11T00:46:02;99633.29;;;24.99;24.27
60646;BME280;46462;32.608;-117.032;2022-11-11T00:48:32;99636.14;;;25.21;23.90
60646;BME280;46462;32.608;-117.032;2022-11-11T00:51:03;99636.62;;;25.28;23.82
60646;BME280;46462;32.608;-117.032;2022-11-11T00:53:32;99638.29;;;25.38;23.66
60646;BME280;46462;32.608;-117.032;2022-11-11T00:56:03;99638.12;;;25.34;23.81
60646;BME280;46462;32.608;-117.032;2022-11-11T00:58:33;99641.33;;;25.41;23.81
60646;BME280;46462;32.608;-117.032;2022-11-11T01:01:03;99642.33;;;25.39;23.82
60646;BME280;46462;32.608;-117.032;2022-11-11T01:03:33;99641.91;;;25.42;23.92
60646;BME280;46462;32.608;-117.032;2022-11-11T01:06:05;99643.62;;;25.46;24.09
60646;BME280;46462;32.608;-117.032;2022-11-11T01:08:33;99643.86;;;25.34;24.32
60646;BME280;46462;32.608;-117.032;2022-11-11T01:13:34;99645.55;;;25.26;24.55
60646;BME280;46462;32.608;-117.032;2022-11-11T01:16:06;99642.83;;;25.27;24.61
60646;BME280;46462;32.608;-117.032;2022-11-11T01:18:34;99644.56;;;25.20;24.77
60646;BME280;46462;32.608;-117.032;2022-11-11T01:21:06;99645.83;;;25.21;24.88
60646;BME280;46462;32.608;-117.032;2022-11-11T01:23:36;99644.54;;;25.20;24.75
60646;BME280;46462;32.608;-117.032;2022-11-11T01:26:07;99647.63;;;25.21;25.01
60646;BME280;46462;32.608;-117.032;2022-11-11T01:28:35;99646.78;;;25.19;25.19
60646;BME280;46462;32.608;-117.032;2022-11-11T01:31:07;99649.16;;;25.18;25.17
60646;BME280;46462;32.608;-117.032;2022-11-11T01:33:36;99650.17;;;25.21;25.25
60646;BME280;46462;32.608;-117.032;2022-11-11T01:36:08;99652.55;;;25.24;25.21
60646;BME280;46462;32.608;-117.032;2022-11-11T01:38:37;99649.63;;;25.18;25.24
60646;BME280;46462;32.608;-117.032;2022-11-11T01:41:07;99649.92;;;25.17;25.45
60646;BME280;46462;32.608;-117.032;2022-11-11T01:43:36;99651.26;;;25.30;25.29
60646;BME280;46462;32.608;-117.032;2022-11-11T01:46:16;99651.34;;;25.25;25.34
60646;BME280;46462;32.608;-117.032;2022-11-11T01:48:40;99652.77;;;25.32;25.13
60646;BME280;46462;32.608;-117.032;2022-11-11T01:51:13;99657.29;;;25.34;25.28
60646;BME280;46462;32.608;-117.032;2022-11-11T01:53:37;99662.79;;;25.29;25.38
60646;BME280;46462;32.608;-117.032;2022-11-11T01:56:08;99670.68;;;25.23;25.50
60646;BME280;46462;32.608;-117.032;2022-11-11T01:58:38;99672.87;;;25.25;25.64
60646;BME280;46462;32.608;-117.032;2022-11-11T02:01:08;99673.79;;;25.26;25.59
60646;BME280;46462;32.608;-117.032;2022-11-11T02:03:40;99675.88;;;25.22;25.71
60646;BME280;46462;32.608;-117.032;2022-11-11T02:06:08;99680.19;;;25.15;25.78
60646;BME280;46462;32.608;-117.032;2022-11-11T02:08:38;99686.05;;;25.11;25.78
60646;BME280;46462;32.608;-117.032;2022-11-11T02:11:12;99685.29;;;25.13;25.75
60646;BME280;46462;32.608;-117.032;2022-11-11T02:13:41;99691.21;;;25.13;25.75
60646;BME280;46462;32.608;-117.032;2022-11-11T02:16:09;99698.83;;;25.21;25.73
60646;BME280;46462;32.608;-117.032;2022-11-11T02:18:40;99699.87;;;25.22;25.75
60646;BME280;46462;32.608;-117.032;2022-11-11T02:21:13;99702.20;;;25.11;25.97
60646;BME280;46462;32.608;-117.032;2022-11-11T02:23:44;99704.78;;;25.14;26.06
60646;BME280;46462;32.608;-117.032;2022-11-11T02:26:11;99705.82;;;25.12;25.92
60646;BME280;46462;32.608;-117.032;2022-11-11T02:28:41;99707.95;;;25.16;25.91
60646;BME280;46462;32.608;-117.032;2022-11-11T02:31:10;99710.06;;;25.11;26.04
60646;BME280;46462;32.608;-117.032;2022-11-11T02:33:40;99711.63;;;25.08;26.16
60646;BME280;46462;32.608;-117.032;2022-11-11T02:36:14;99716.77;;;25.01;26.30
60646;BME280;46462;32.608;-117.032;2022-11-11T02:38:41;99721.13;;;25.04;26.14
60646;BME280;46462;32.608;-117.032;2022-11-11T02:41:11;99725.02;;;25.06;26.19
60646;BME280;46462;32.608;-117.032;2022-11-11T02:43:41;99728.21;;;25.02;26.19
60646;BME280;46462;32.608;-117.032;2022-11-11T02:46:11;99728.38;;;25.01;26.35
60646;BME280;46462;32.608;-117.032;2022-11-11T02:48:42;99727.85;;;24.94;26.31
60646;BME280;46462;32.608;-117.032;2022-11-11T02:51:12;99728.59;;;24.91;26.57
60646;BME280;46462;32.608;-117.032;2022-11-11T02:53:42;99728.91;;;24.90;26.50
60646;BME280;46462;32.608;-117.032;2022-11-11T02:56:12;99731.03;;;24.95;26.46
60646;BME280;46462;32.608;-117.032;2022-11-11T02:58:42;99734.67;;;24.89;26.53
60646;BME280;46462;32.608;-117.032;2022-11-11T03:01:12;99732.25;;;24.95;26.43
60646;BME280;46462;32.608;-117.032;2022-11-11T03:03:43;99734.10;;;24.94;26.62
60646;BME280;46462;32.608;-117.032;2022-11-11T03:06:13;99735.27;;;24.97;26.51
60646;BME280;46462;32.608;-117.032;2022-11-11T03:08:43;99736.14;;;24.95;26.66
60646;BME280;46462;32.608;-117.032;2022-11-11T03:11:13;99738.26;;;24.86;26.69
60646;BME280;46462;32.608;-117.032;2022-11-11T03:13:43;99736.71;;;24.86;26.82
60646;BME280;46462;32.608;-117.032;2022-11-11T03:16:13;99734.42;;;24.81;26.89
60646;BME280;46462;32.608;-117.032;2022-11-11T03:18:44;99732.74;;;24.84;26.81
60646;BME280;46462;32.608;-117.032;2022-11-11T03:21:14;99732.00;;;24.82;26.93
60646;BME280;46462;32.608;-117.032;2022-11-11T03:23:44;99733.64;;;24.73;27.16
60646;BME280;46462;32.608;-117.032;2022-11-11T03:26:14;99733.87;;;24.76;26.97
60646;BME280;46462;32.608;-117.032;2022-11-11T03:28:44;99735.92;;;24.74;27.16
60646;BME280;46462;32.608;-117.032;2022-11-11T03:31:15;99734.68;;;24.73;27.12
60646;BME280;46462;32.608;-117.032;2022-11-11T03:33:45;99733.52;;;24.79;27.00
60646;BME280;46462;32.608;-117.032;2022-11-11T03:36:15;99734.61;;;24.77;27.00
60646;BME280;46462;32.608;-117.032;2022-11-11T03:38:45;99731.90;;;24.77;27.04
60646;BME280;46462;32.608;-117.032;2022-11-11T03:41:16;99733.91;;;24.75;27.10
60646;BME280;46462;32.608;-117.032;2022-11-11T03:43:46;99738.49;;;24.70;27.14
60646;BME280;46462;32.608;-117.032;2022-11-11T03:46:16;99741.87;;;24.72;27.23
60646;BME280;46462;32.608;-117.032;2022-11-11T03:48:46;99741.42;;;24.67;27.34
60646;BME280;46462;32.608;-117.032;2022-11-11T03:51:16;99741.92;;;24.74;27.19
60646;BME280;46462;32.608;-117.032;2022-11-11T03:53:47;99745.33;;;24.73;27.33
60646;BME280;46462;32.608;-117.032;2022-11-11T03:56:17;99747.05;;;24.65;27.44
60646;BME280;46462;32.608;-117.032;2022-11-11T03:58:47;99749.13;;;24.59;27.47
60646;BME280;46462;32.608;-117.032;2022-11-11T04:01:17;99747.64;;;24.63;27.55
60646;BME280;46462;32.608;-117.032;2022-11-11T04:03:47;99749.98;;;24.70;27.24
60646;BME280;46462;32.608;-117.032;2022-11-11T04:06:18;99757.45;;;24.54;27.60
60646;BME280;46462;32.608;-117.032;2022-11-11T04:08:48;99760.73;;;24.54;27.59
60646;BME280;46462;32.608;-117.032;2022-11-11T04:11:21;99764.88;;;24.58;27.57
60646;BME280;46462;32.608;-117.032;2022-11-11T04:13:48;99767.00;;;24.59;27.41
60646;BME280;46462;32.608;-117.032;2022-11-11T04:16:18;99769.37;;;24.52;27.63
60646;BME280;46462;32.608;-117.032;2022-11-11T04:18:49;99769.78;;;24.52;27.58
60646;BME280;46462;32.608;-117.032;2022-11-11T04:21:19;99772.50;;;24.51;27.66
60646;BME280;46462;32.608;-117.032;2022-11-11T04:23:49;99776.87;;;24.50;27.73
60646;BME280;46462;32.608;-117.032;2022-11-11T04:26:19;99775.93;;;24.43;27.86
60646;BME280;46462;32.608;-117.032;2022-11-11T04:28:50;99777.76;;;24.44;27.87
60646;BME280;46462;32.608;-117.032;2022-11-11T04:31:20;99778.06;;;24.43;27.78
60646;BME280;46462;32.608;-117.032;2022-11-11T04:33:50;99782.51;;;24.42;27.96
60646;BME280;46462;32.608;-117.032;2022-11-11T04:36:20;99786.44;;;24.45;28.04
60646;BME280;46462;32.608;-117.032;2022-11-11T04:38:50;99788.43;;;24.34;28.10
60646;BME280;46462;32.608;-117.032;2022-11-11T04:41:21;99785.40;;;24.42;27.89
60646;BME280;46462;32.608;-117.032;2022-11-11T04:43:51;99785.56;;;24.39;27.91
60646;BME280;46462;32.608;-117.032;2022-11-11T04:46:21;99783.39;;;24.30;28.19
60646;BME280;46462;32.608;-117.032;2022-11-11T04:48:51;99783.65;;;24.29;28.37
60646;BME280;46462;32.608;-117.032;2022-11-11T04:51:21;99787.66;;;24.31;28.23
60646;BME280;46462;32.608;-117.032;2022-11-11T04:53:52;99790.40;;;24.32;28.08
60646;BME280;46462;32.608;-117.032;2022-11-11T04:56:22;99791.33;;;24.29;28.23
60646;BME280;46462;32.608;-117.032;2022-11-11T04:58:52;99793.23;;;24.23;28.45
60646;BME280;46462;32.608;-117.032;2022-11-11T05:01:22;99798.39;;;24.25;28.45
60646;BME280;46462;32.608;-117.032;2022-11-11T05:03:53;99803.82;;;24.32;28.28
60646;BME280;46462;32.608;-117.032;2022-11-11T05:06:23;99803.08;;;24.24;28.38
60646;BME280;46462;32.608;-117.032;2022-11-11T05:08:53;99800.61;;;24.22;28.31
60646;BME280;46462;32.608;-117.032;2022-11-11T05:11:25;99801.33;;;24.12;28.58
60646;BME280;46462;32.608;-117.032;2022-11-11T05:13:55;99803.10;;;24.21;28.32
60646;BME280;46462;32.608;-117.032;2022-11-11T05:16:25;99803.39;;;24.07;28.65
60646;BME280;46462;32.608;-117.032;2022-11-11T05:18:54;99803.59;;;24.18;28.59
60646;BME280;46462;32.608;-117.032;2022-11-11T05:21:27;99808.51;;;24.22;28.43
60646;BME280;46462;32.608;-117.032;2022-11-11T05:23:54;99808.70;;;24.14;28.58
60646;BME280;46462;32.608;-117.032;2022-11-11T05:26:24;99807.49;;;24.04;28.71
60646;BME280;46462;32.608;-117.032;2022-11-11T05:28:55;99805.24;;;24.18;28.46
60646;BME280;46462;32.608;-117.032;2022-11-11T05:31:25;99801.93;;;24.12;28.70
60646;BME280;46462;32.608;-117.032;2022-11-11T05:33:55;99801.78;;;24.14;28.57
60646;BME280;46462;32.608;-117.032;2022-11-11T05:36:25;99806.23;;;24.02;28.91
60646;BME280;46462;32.608;-117.032;2022-11-11T05:38:56;99804.55;;;23.99;28.98
60646;BME280;46462;32.608;-117.032;2022-11-11T05:41:26;99797.39;;;23.99;29.01
60646;BME280;46462;32.608;-117.032;2022-11-11T05:43:56;99794.32;;;23.92;29.02
60646;BME280;46462;32.608;-117.032;2022-11-11T05:46:26;99791.61;;;24.00;28.93
60646;BME280;46462;32.608;-117.032;2022-11-11T05:48:56;99790.76;;;24.09;28.94
60646;BME280;46462;32.608;-117.032;2022-11-11T05:51:27;99789.38;;;24.01;28.99
60646;BME280;46462;32.608;-117.032;2022-11-11T05:53:57;99789.52;;;23.94;29.04
60646;BME280;46462;32.608;-117.032;2022-11-11T05:56:27;99789.95;;;24.00;28.93
60646;BME280;46462;32.608;-117.032;2022-11-11T05:58:57;99790.91;;;24.05;29.12
60646;BME280;46462;32.608;-117.032;2022-11-11T06:01:27;99791.10;;;23.94;29.00
60646;BME280;46462;32.608;-117.032;2022-11-11T06:03:58;99786.99;;;24.00;28.90
60646;BME280;46462;32.608;-117.032;2022-11-11T06:06:28;99783.21;;;23.98;29.08
60646;BME280;46462;32.608;-117.032;2022-11-11T06:08:58;99779.16;;;24.00;28.94
60646;BME280;46462;32.608;-117.032;2022-11-11T06:11:29;99781.28;;;23.98;29.03
60646;BME280;46462;32.608;-117.032;2022-11-11T06:13:59;99786.02;;;23.98;28.98
60646;BME280;46462;32.608;-117.032;2022-11-11T06:16:29;99781.54;;;23.97;29.14
60646;BME280;46462;32.608;-117.032;2022-11-11T06:18:59;99781.19;;;23.95;29.10
60646;BME280;46462;32.608;-117.032;2022-11-11T06:21:30;99779.53;;;23.91;29.03
60646;BME280;46462;32.608;-117.032;2022-11-11T06:23:59;99777.48;;;23.95;29.21
60646;BME280;46462;32.608;-117.032;2022-11-11T06:26:30;99774.84;;;23.85;29.25
60646;BME280;46462;32.608;-117.032;2022-11-11T06:29:00;99777.11;;;23.95;28.90
60646;BME280;46462;32.608;-117.032;2022-11-11T06:31:30;99775.49;;;23.89;29.17
60646;BME280;46462;32.608;-117.032;2022-11-11T06:34:00;99774.35;;;23.92;29.07
60646;BME280;46462;32.608;-117.032;2022-11-11T06:36:30;99770.43;;;23.85;29.34
60646;BME280;46462;32.608;-117.032;2022-11-11T06:39:01;99769.88;;;23.81;29.39
60646;BME280;46462;32.608;-117.032;2022-11-11T06:41:31;99765.58;;;23.81;29.40
60646;BME280;46462;32.608;-117.032;2022-11-11T06:44:01;99759.86;;;23.77;29.36
60646;BME280;46462;32.608;-117.032;2022-11-11T06:46:31;99754.69;;;23.75;29.47
60646;BME280;46462;32.608;-117.032;2022-11-11T06:49:02;99753.62;;;23.79;29.15
60646;BME280;46462;32.608;-117.032;2022-11-11T06:51:32;99754.21;;;23.62;29.56
60646;BME280;46462;32.608;-117.032;2022-11-11T06:54:02;99753.17;;;23.80;29.09
60646;BME280;46462;32.608;-117.032;2022-11-11T06:56:32;99751.09;;;23.85;29.13
60646;BME280;46462;32.608;-117.032;2022-11-11T06:59:02;99749.90;;;23.72;29.24
60646;BME280;46462;32.608;-117.032;2022-11-11T07:01:33;99750.32;;;23.66;29.73
60646;BME280;46462;32.608;-117.032;2022-11-11T07:04:03;99746.10;;;23.48;29.68
60646;BME280;46462;32.608;-117.032;2022-11-11T07:06:33;99746.35;;;23.52;29.68
60646;BME280;46462;32.608;-117.032;2022-11-11T07:09:03;99750.20;;;23.47;29.79
60646;BME280;46462;32.608;-117.032;2022-11-11T07:11:33;99745.70;;;23.38;29.90
60646;BME280;46462;32.608;-117.032;2022-11-11T07:14:04;99742.75;;;23.48;29.92
60646;BME280;46462;32.608;-117.032;2022-11-11T07:16:34;99744.35;;;23.61;29.68
60646;BME280;46462;32.608;-117.032;2022-11-11T07:19:04;99747.17;;;23.49;29.71
60646;BME280;46462;32.608;-117.032;2022-11-11T07:21:34;99749.20;;;23.54;29.70
60646;BME280;46462;32.608;-117.032;2022-11-11T07:24:05;99751.32;;;23.47;29.77
60646;BME280;46462;32.608;-117.032;2022-11-11T07:26:35;99749.89;;;23.60;29.56
60646;BME280;46462;32.608;-117.032;2022-11-11T07:29:05;99742.83;;;23.55;29.71
60646;BME280;46462;32.608;-117.032;2022-11-11T07:31:35;99744.46;;;23.43;29.82
60646;BME280;46462;32.608;-117.032;2022-11-11T07:34:05;99745.30;;;23.60;29.46
60646;BME280;46462;32.608;-117.032;2022-11-11T07:36:36;99746.95;;;23.42;29.76
60646;BME280;46462;32.608;-117.032;2022-11-11T07:39:06;99742.81;;;23.44;29.78
60646;BME280;46462;32.608;-117.032;2022-11-11T07:41:36;99746.44;;;23.48;29.60
60646;BME280;46462;32.608;-117.032;2022-11-11T07:44:06;99748.63;;;23.50;29.72
60646;BME280;46462;32.608;-117.032;2022-11-11T07:46:37;99750.76;;;23.42;29.89
60646;BME280;46462;32.608;-117.032;2022-11-11T07:49:07;99750.54;;;23.38;29.85
60646;BME280;46462;32.608;-117.032;2022-11-11T07:51:37;99746.38;;;23.39;29.96
60646;BME280;46462;32.608;-117.032;2022-11-11T07:54:07;99748.88;;;23.30;30.12
60646;BME280;46462;32.608;-117.032;2022-11-11T07:56:38;99753.05;;;23.33;30.05
60646;BME280;46462;32.608;-117.032;2022-11-11T07:59:08;99752.49;;;23.38;30.34
60646;BME280;46462;32.608;-117.032;2022-11-11T08:01:38;99749.65;;;23.28;30.18
60646;BME280;46462;32.608;-117.032;2022-11-11T08:04:08;99746.87;;;23.21;30.11
60646;BME280;46462;32.608;-117.032;2022-11-11T08:06:38;99749.39;;;23.03;30.51
60646;BME280;46462;32.608;-117.032;2022-11-11T08:09:09;99741.77;;;23.15;30.47
60646;BME280;46462;32.608;-117.032;2022-11-11T08:11:39;99738.41;;;23.22;30.22
60646;BME280;46462;32.608;-117.032;2022-11-11T08:14:09;99737.91;;;23.26;30.10
60646;BME280;46462;32.608;-117.032;2022-11-11T08:16:39;99737.73;;;23.23;30.56
60646;BME280;46462;32.608;-117.032;2022-11-11T08:19:09;99735.00;;;23.32;29.94
60646;BME280;46462;32.608;-117.032;2022-11-11T08:21:40;99737.93;;;23.05;30.54
60646;BME280;46462;32.608;-117.032;2022-11-11T08:24:10;99738.45;;;23.01;30.42
60646;BME280;46462;32.608;-117.032;2022-11-11T08:26:40;99736.96;;;23.08;30.39
60646;BME280;46462;32.608;-117.032;2022-11-11T08:29:10;99734.57;;;23.09;30.23
60646;BME280;46462;32.608;-117.032;2022-11-11T08:31:41;99730.96;;;23.22;29.92
60646;BME280;46462;32.608;-117.032;2022-11-11T08:34:11;99723.45;;;23.20;30.20
60646;BME280;46462;32.608;-117.032;2022-11-11T08:36:41;99720.52;;;23.27;30.01
60646;BME280;46462;32.608;-117.032;2022-11-11T08:39:11;99722.18;;;23.07;30.20
60646;BME280;46462;32.608;-117.032;2022-11-11T08:41:42;99719.95;;;23.02;30.34
60646;BME280;46462;32.608;-117.032;2022-11-11T08:44:12;99719.33;;;23.16;30.05
60646;BME280;46462;32.608;-117.032;2022-11-11T08:46:42;99721.04;;;22.76;30.73
60646;BME280;46462;32.608;-117.032;2022-11-11T08:49:12;99718.77;;;23.12;30.17
60646;BME280;46462;32.608;-117.032;2022-11-11T08:51:43;99712.98;;;22.99;30.47
60646;BME280;46462;32.608;-117.032;2022-11-11T08:54:13;99706.63;;;23.00;30.41
60646;BME280;46462;32.608;-117.032;2022-11-11T08:56:43;99700.91;;;23.03;30.21
60646;BME280;46462;32.608;-117.032;2022-11-11T08:59:13;99700.91;;;22.86;30.66
60646;BME280;46462;32.608;-117.032;2022-11-11T09:01:43;99697.16;;;23.02;30.22
60646;BME280;46462;32.608;-117.032;2022-11-11T09:04:14;99697.55;;;22.93;30.55
60646;BME280;46462;32.608;-117.032;2022-11-11T09:06:44;99692.72;;;22.93;30.30
60646;BME280;46462;32.608;-117.032;2022-11-11T09:09:14;99694.60;;;22.54;31.12
60646;BME280;46462;32.608;-117.032;2022-11-11T09:11:44;99691.77;;;22.78;30.93
60646;BME280;46462;32.608;-117.032;2022-11-11T09:14:14;99692.67;;;22.91;30.59
60646;BME280;46462;32.608;-117.032;2022-11-11T09:16:45;99692.21;;;22.94;30.40
60646;BME280;46462;32.608;-117.032;2022-11-11T09:19:15;99694.42;;;23.12;30.03
60646;BME280;46462;32.608;-117.032;2022-11-11T09:21:45;99696.98;;;23.00;30.70
60646;BME280;46462;32.608;-117.032;2022-11-11T09:24:15;99697.08;;;23.07;30.00
60646;BME280;46462;32.608;-117.032;2022-11-11T09:26:47;99693.75;;;22.62;30.87
60646;BME280;46462;32.608;-117.032;2022-11-11T09:29:16;99692.09;;;22.69;30.68
60646;BME280;46462;32.608;-117.032;2022-11-11T09:31:46;99692.41;;;22.61;30.86
60646;BME280;46462;32.608;-117.032;2022-11-11T09:34:16;99691.56;;;22.76;30.38
60646;BME280;46462;32.608;-117.032;2022-11-11T09:36:47;99685.87;;;22.77;30.62
60646;BME280;46462;32.608;-117.032;2022-11-11T09:39:17;99686.45;;;22.51;30.75
60646;BME280;46462;32.608;-117.032;2022-11-11T09:41:53;99684.62;;;22.64;30.71
60646;BME280;46462;32.608;-117.032;2022-11-11T09:44:34;99680.14;;;22.73;30.75
60646;BME280;46462;32.608;-117.032;2022-11-11T09:46:54;99675.44;;;22.81;30.33
60646;BME280;46462;32.608;-117.032;2022-11-11T09:49:29;99674.84;;;22.79;30.38
60646;BME280;46462;32.608;-117.032;2022-11-11T09:51:53;99675.84;;;22.73;30.30
60646;BME280;46462;32.608;-117.032;2022-11-11T09:54:25;99676.20;;;22.67;30.43
60646;BME280;46462;32.608;-117.032;2022-11-11T09:56:49;99674.95;;;22.85;30.27
60646;BME280;46462;32.608;-117.032;2022-11-11T09:59:22;99675.74;;;22.75;30.26
60646;BME280;46462;32.608;-117.032;2022-11-11T10:01:52;99674.86;;;22.65;30.45
60646;BME280;46462;32.608;-117.032;2022-11-11T10:04:27;99666.90;;;22.64;30.46
60646;BME280;46462;32.608;-117.032;2022-11-11T10:06:56;99662.27;;;22.47;30.77
60646;BME280;46462;32.608;-117.032;2022-11-11T10:09:29;99658.07;;;22.46;30.65
60646;BME280;46462;32.608;-117.032;2022-11-11T10:11:53;99656.10;;;22.62;30.56
60646;BME280;46462;32.608;-117.032;2022-11-11T10:14:20;99656.66;;;22.50;30.59
60646;BME280;46462;32.608;-117.032;2022-11-11T10:16:57;99651.99;;;22.48;30.65
60646;BME280;46462;32.608;-117.032;2022-11-11T10:19:28;99648.99;;;22.56;30.60
60646;BME280;46462;32.608;-117.032;2022-11-11T10:21:53;99650.20;;;22.72;30.12
60646;BME280;46462;32.608;-117.032;2022-11-11T10:24:28;99648.70;;;22.47;30.54
60646;BME280;46462;32.608;-117.032;2022-11-11T10:26:51;99645.28;;;22.53;30.64
60646;BME280;46462;32.608;-117.032;2022-11-11T10:29:25;99649.22;;;22.52;30.39
60646;BME280;46462;32.608;-117.032;2022-11-11T10:31:57;99643.63;;;22.57;30.46
60646;BME280;46462;32.608;-117.032;2022-11-11T10:34:22;99643.50;;;22.40;30.54
60646;BME280;46462;32.608;-117.032;2022-11-11T10:36:54;99641.69;;;22.53;30.37
60646;BME280;46462;32.608;-117.032;2022-11-11T10:39:26;99643.83;;;22.41;30.71
60646;BME280;46462;32.608;-117.032;2022-11-11T10:41:53;99645.17;;;22.32;30.88
60646;BME280;46462;32.608;-117.032;2022-11-11T10:44:26;99643.26;;;22.26;30.86
60646;BME280;46462;32.608;-117.032;2022-11-11T10:46:59;99642.65;;;22.36;30.57
60646;BME280;46462;32.608;-117.032;2022-11-11T10:49:26;99637.41;;;22.23;30.90
60646;BME280;46462;32.608;-117.032;2022-11-11T10:51:58;99635.13;;;22.38;30.67
60646;BME280;46462;32.608;-117.032;2022-11-11T10:54:28;99630.80;;;22.49;30.25
60646;BME280;46462;32.608;-117.032;2022-11-11T10:56:57;99634.63;;;22.31;30.78
60646;BME280;46462;32.608;-117.032;2022-11-11T10:59:28;99630.16;;;22.42;30.33
60646;BME280;46462;32.608;-117.032;2022-11-11T11:01:58;99626.91;;;22.41;30.46
60646;BME280;46462;32.608;-117.032;2022-11-11T11:04:30;99625.93;;;22.52;30.32
60646;BME280;46462;32.608;-117.032;2022-11-11T11:06:56;99622.61;;;22.35;30.42
60646;BME280;46462;32.608;-117.032;2022-11-11T11:09:29;99618.17;;;22.45;30.22
60646;BME280;46462;32.608;-117.032;2022-11-11T11:11:59;99619.79;;;22.28;30.58
60646;BME280;46462;32.608;-117.032;2022-11-11T11:14:29;99616.33;;;22.45;30.40
60646;BME280;46462;32.608;-117.032;2022-11-11T11:16:59;99615.64;;;22.50;30.01
60646;BME280;46462;32.608;-117.032;2022-11-11T11:19:27;99619.72;;;22.24;30.48
60646;BME280;46462;32.608;-117.032;2022-11-11T11:21:58;99620.90;;;22.38;30.22
60646;BME280;46462;32.608;-117.032;2022-11-11T11:24:28;99621.24;;;22.26;30.34
60646;BME280;46462;32.608;-117.032;2022-11-11T11:26:58;99616.78;;;22.11;30.70
60646;BME280;46462;32.608;-117.032;2022-11-11T11:29:30;99622.62;;;22.26;30.46
60646;BME280;46462;32.608;-117.032;2022-11-11T11:37:01;99626.50;;;22.16;30.32
60646;BME280;46462;32.608;-117.032;2022-11-11T11:39:33;99632.90;;;22.28;30.26
60646;BME280;46462;32.608;-117.032;2022-11-11T11:41:58;99632.86;;;22.12;30.38
60646;BME280;46462;32.608;-117.032;2022-11-11T11:44:30;99635.21;;;22.07;30.59
60646;BME280;46462;32.608;-117.032;2022-11-11T11:47:08;99636.72;;;22.14;30.51
60646;BME280;46462;32.608;-117.032;2022-11-11T11:49:40;99639.27;;;22.02;30.79
60646;BME280;46462;32.608;-117.032;2022-11-11T11:52:05;99644.00;;;22.09;30.58
60646;BME280;46462;32.608;-117.032;2022-11-11T11:54:44;99642.40;;;22.03;30.57
60646;BME280;46462;32.608;-117.032;2022-11-11T11:57:02;99643.43;;;21.88;30.82
60646;BME280;46462;32.608;-117.032;2022-11-11T11:59:38;99641.78;;;22.06;30.44
60646;BME280;46462;32.608;-117.032;2022-11-11T12:02:04;99644.70;;;22.14;30.43
60646;BME280;46462;32.608;-117.032;2022-11-11T12:07:08;99643.35;;;21.86;30.69
60646;BME280;46462;32.608;-117.032;2022-11-11T12:09:38;99647.09;;;22.01;30.32
60646;BME280;46462;32.608;-117.032;2022-11-11T12:12:06;99656.55;;;21.93;30.51
60646;BME280;46462;32.608;-117.032;2022-11-11T12:14:46;99658.03;;;21.79;30.73
60646;BME280;46462;32.608;-117.032;2022-11-11T12:17:09;99658.60;;;21.90;30.65
60646;BME280;46462;32.608;-117.032;2022-11-11T12:19:41;99661.60;;;21.56;31.31
60646;BME280;46462;32.608;-117.032;2022-11-11T12:22:10;99669.35;;;21.61;30.98
60646;BME280;46462;32.608;-117.032;2022-11-11T12:24:42;99667.81;;;21.61;31.13
60646;BME280;46462;32.608;-117.032;2022-11-11T12:27:09;99668.08;;;21.69;30.90
60646;BME280;46462;32.608;-117.032;2022-11-11T12:29:42;99666.70;;;21.82;30.52
60646;BME280;46462;32.608;-117.032;2022-11-11T12:32:18;99662.17;;;21.89;30.32
60646;BME280;46462;32.608;-117.032;2022-11-11T12:37:09;99661.80;;;21.92;30.41
60646;BME280;46462;32.608;-117.032;2022-11-11T12:39:46;99668.96;;;21.94;30.38
60646;BME280;46462;32.608;-117.032;2022-11-11T12:42:12;99666.21;;;21.78;30.59
60646;BME280;46462;32.608;-117.032;2022-11-11T12:44:40;99670.06;;;21.67;30.89
60646;BME280;46462;32.608;-117.032;2022-11-11T12:47:17;99670.04;;;21.73;30.56
60646;BME280;46462;32.608;-117.032;2022-11-11T12:49:44;99676.95;;;21.79;30.53
60646;BME280;46462;32.608;-117.032;2022-11-11T12:52:17;99678.93;;;21.85;30.44
60646;BME280;46462;32.608;-117.032;2022-11-11T12:54:43;99682.25;;;21.64;30.76
60646;BME280;46462;32.608;-117.032;2022-11-11T12:57:10;99682.59;;;21.66;30.58